Aviation Digital Data Service (ADDS)

Output produced by METARs form (1016 UTC 17 February 2019)
found at http://aviationweather.gov/metar/data/
 
KSTS 170953Z AUTO 32010KT 5SM RA BR BKN024 OVC029 04/03 A3007 RMK AO2 SLP177 P0005 T00390033
KSTS 170522Z 1706/1806 29008KT P6SM VCSH FEW030 SCT050 SCT100 
     FM170900 VRB04KT 5SM -SHRA BKN030 BKN050 
     FM171500 34008KT P6SM VCSH SCT030 BKN050 
     FM171800 32011G18KT P6SM VCSH FEW030 SCT050 
     FM180200 32006KT P6SM FEW200